• Join FlightAware (Why Join?)
  • Login
  • US Flag 
07:17PM EDT


 

Airport Tracker/Info


-or-


 

Live Flight TrackerFlight Track Log ✈ CHH7668 ✈ 24-Jul-2013 ✈ ZGKL / KWL - ZUCK / CKG

Flight Track Log - Related Links

Times and Time Zones

All times are in EDT time to prevent confusion due to time zone crossing. See the CHH7668 flight status page for this flight to view local times or setup timezone preferences in your user account.

Time Position Orientation Groundspeed Altitude Reporting Facility
EDT Latitude Longitude Course Direction KTS MPH feet Rate Location/Type
11:26AM 25.3090 109.9738 327° Northwest  Level Estimated
11:27AM 25.3998 109.9083 327° Northwest  Level Estimated
11:28AM 25.4907 109.8427 327° Northwest  Level Estimated
11:29AM 25.5814 109.7770 327° Northwest  Level Estimated
11:30AM 25.6722 109.7112 327° Northwest  Level Estimated
11:31AM 25.7629 109.6453 327° Northwest  Level Estimated
11:32AM 25.8536 109.5793 327° Northwest  Level Estimated
11:33AM 25.9443 109.5132 327° Northwest  Level Estimated
11:34AM 26.0349 109.4470 327° Northwest  Level Estimated
11:35AM 26.1255 109.3807 327° Northwest  Level Estimated
11:36AM 26.2161 109.3142 327° Northwest  Level Estimated
11:37AM 26.3067 109.2477 327° Northwest  Level Estimated
11:38AM 26.3972 109.1811 327° Northwest  Level Estimated
11:39AM 26.4877 109.1144 327° Northwest  Level Estimated
11:40AM 26.5781 109.0476 327° Northwest  Level Estimated
11:41AM 26.6686 108.9806 327° Northwest  Level Estimated
11:42AM 26.7555 108.9162 326° Northwest  Level Estimated
11:43AM 26.8424 108.8516 326° Northwest  Level Estimated
11:44AM 26.9293 108.7869 326° Northwest  Level Estimated
11:45AM 27.0161 108.7222 326° Northwest  Level Estimated
11:46AM 27.1029 108.6573 326° Northwest  Level Estimated
11:47AM 27.1896 108.5924 326° Northwest  Level Estimated
11:48AM 27.2764 108.5273 326° Northwest  Level Estimated
11:49AM 27.3631 108.4622 326° Northwest  Level Estimated
11:50AM 27.4498 108.3969 326° Northwest  Level Estimated
11:51AM 27.5364 108.3315 326° Northwest  Level Estimated
11:52AM 27.6231 108.2661 326° Northwest  Level Estimated
11:53AM 27.7096 108.2005 326° Northwest  Level Estimated
11:54AM 27.7962 108.1348 326° Northwest  Level Estimated
11:55AM 27.8827 108.0690 326° Northwest  Level Estimated
11:56AM 27.9692 108.0031 326° Northwest  Level Estimated
11:57AM 28.0557 107.9371 326° Northwest  Level Estimated
11:58AM 28.1421 107.8710 326° Northwest  Level Estimated
11:59AM 28.2285 107.8048 326° Northwest  Level Estimated
12:00PM 28.3149 107.7385 326° Northwest  Level Estimated
12:01PM 28.4012 107.6721 326° Northwest  Level Estimated
12:02PM 28.4876 107.6056 326° Northwest  Level Estimated
12:03PM 28.5738 107.5389 326° Northwest  Level Estimated
12:04PM 28.6601 107.4722 326° Northwest  Level Estimated
12:05PM 28.7463 107.4053 326° Northwest  Level Estimated
12:06PM 28.8324 107.3383 326° Northwest  Level Estimated
12:07PM 28.9186 107.2713 326° Northwest  Level Estimated
12:08PM 29.0047 107.2041 326° Northwest  Level Estimated
12:09PM 29.0908 107.1368 326° Northwest  Level Estimated
12:10PM 29.1768 107.0694 326° Northwest  Level Estimated
12:11PM 29.2628 107.0018 326° Northwest  Level Estimated
12:12PM 29.3488 106.9342 326° Northwest  Level Estimated
12:13PM 29.4347 106.8664 326° Northwest  Level Estimated
12:14PM 29.5206 106.7986 325° Northwest  Level Estimated
12:15PM 29.6065 106.7306 325° Northwest  Level Estimated
12:16PM 29.6923 106.6625 325° Northwest  Level Estimated
12:17PM 29.7194 106.6410 325° Northwest  Level Estimated
12:18PM 29.7194 106.6410 60° Northeast  Level Estimated
12:19PM 29.7194 106.6410 60° Northeast  Level Estimated
12:20PM 29.7194 106.6410 60° Northeast  Level Estimated
12:21PM 29.7194 106.6410 60° Northeast  Level Estimated
12:22PM 29.7194 106.6410 60° Northeast  Level Estimated
12:23PM 29.7194 106.6410 60° Northeast  Level Estimated
12:24PM 29.7194 106.6410 60° Northeast  Level Estimated
12:25PM 29.7194 106.6410 60° Northeast  Level Estimated
12:26PM 29.7194 106.6410 60° Northeast  Level Estimated